Terminal Aerodrome Forecast
Issued by NWS Grand Rapids, MI

Home | Current Version | Previous Version | Text Only | Print | Product List | Glossary On
Versions: 1 2 3 4 5 6 7 8 9 10 11 12 13 14 15 16 17 18 19
048
FTUS43 KGRR 082102 AAB
TAFGRR
TAF AMD
KGRR 082102Z 0821/0918 26012KT 4SM -SHSN OVC035
      TEMPO 0821/0824 2SM -SN OVC025
     FM090600 30012KT 3SM -SN OVC025=

USA.gov is the U.S. government's official web portal to all federal, state and local government web resources and services.